createdAt,value
2019-02-26T00:00:29.741Z,34.9
2019-02-26T00:01:06.221Z,34.9
2019-02-26T00:02:06.754Z,34.9
2019-02-26T00:03:06.867Z,34.9
2019-02-26T00:03:39.984Z,34.9
2019-02-26T00:04:40.062Z,34.9
2019-02-26T00:05:34.469Z,34.9
2019-02-26T00:06:08.419Z,34.9
2019-02-26T00:07:04.249Z,34.9
2019-02-26T00:08:04.896Z,34.9
2019-02-26T00:08:39.032Z,34.9
2019-02-26T00:09:39.034Z,34.8
2019-02-26T00:10:19.739Z,34.8
2019-02-26T00:11:14.946Z,34.8
2019-02-26T00:11:57.481Z,34.8
2019-02-26T00:12:47.836Z,34.8
2019-02-26T00:13:41.956Z,34.8
2019-02-26T00:14:34.575Z,34.8
2019-02-26T00:15:17.822Z,34.8
2019-02-26T00:16:23.611Z,34.8
2019-02-26T00:16:57.839Z,34.8
2019-02-26T00:17:56.201Z,34.7
2019-02-26T00:18:38.213Z,34.7
2019-02-26T00:19:27.798Z,34.7
2019-02-26T00:20:22.729Z,34.7
2019-02-26T00:21:09.948Z,34.6
2019-02-26T00:21:59.745Z,34.7
2019-02-26T00:22:48.314Z,34.6
2019-02-26T00:23:38.939Z,34.6
2019-02-26T00:24:46.466Z,34.6
2019-02-26T00:25:25.241Z,34.6
2019-02-26T00:26:19.703Z,34.6
2019-02-26T00:27:10.185Z,34.6
2019-02-26T00:27:59.823Z,34.6
2019-02-26T00:28:49.605Z,34.6
2019-02-26T00:29:36.015Z,34.6
2019-02-26T00:30:23.482Z,34.6
2019-02-26T00:31:11.068Z,34.6
2019-02-26T00:32:02.543Z,34.6
2019-02-26T00:32:48.980Z,34.5
2019-02-26T00:33:38.772Z,34.5
2019-02-26T00:34:36.751Z,34.5
2019-02-26T00:35:31.592Z,34.4
2019-02-26T00:36:18.529Z,34.4
2019-02-26T00:37:09.933Z,34.4
2019-02-26T00:37:59.883Z,34.4
2019-02-26T00:38:48.737Z,34.4
2019-02-26T00:39:36.300Z,34.4
2019-02-26T00:40:24.789Z,34.4
2019-02-26T00:41:11.870Z,34.4
2019-02-26T00:42:08.820Z,34.4
2019-02-26T00:43:08.149Z,34.4
2019-02-26T00:43:41.681Z,34.4
2019-02-26T00:44:41.092Z,34.4
2019-02-26T00:45:39.686Z,34.4
2019-02-26T00:46:14.396Z,34.3
2019-02-26T00:47:12.296Z,34.3
2019-02-26T00:47:51.819Z,34.3
2019-02-26T00:48:47.151Z,34.3
2019-02-26T00:49:33.999Z,34.3
2019-02-26T00:50:21.345Z,34.3
2019-02-26T00:51:10.144Z,34.3
2019-02-26T00:52:00.225Z,34.3
2019-02-26T00:52:54.536Z,34.3
2019-02-26T00:53:40.054Z,34.3
2019-02-26T00:54:40.951Z,34.3
2019-02-26T00:55:29.741Z,34.2
2019-02-26T00:56:15.369Z,34.3
2019-02-26T00:57:17.526Z,34.2
2019-02-26T00:57:50.674Z,34.2
2019-02-26T00:58:53.936Z,34.2
2019-02-26T00:59:30.781Z,34.2
2019-02-26T01:00:21.082Z,34.2
2019-02-26T01:01:26.386Z,34.1
2019-02-26T01:02:04.420Z,34.1
2019-02-26T01:02:50.463Z,34.1
2019-02-26T01:03:52.886Z,34.1
2019-02-26T01:04:31.391Z,34.1
2019-02-26T01:05:21.486Z,34.1
2019-02-26T01:06:13.748Z,34.1
2019-02-26T01:07:10.901Z,34.1
2019-02-26T01:07:58.898Z,34.1
2019-02-26T01:08:50.938Z,34
2019-02-26T01:09:37.791Z,34.1
2019-02-26T01:10:27.956Z,34
2019-02-26T01:11:12.545Z,34
2019-02-26T01:12:01.375Z,34
2019-02-26T01:12:51.173Z,34
2019-02-26T01:13:41.496Z,34
2019-02-26T01:14:31.273Z,34
2019-02-26T01:15:21.063Z,33.9
2019-02-26T01:16:11.403Z,34
2019-02-26T01:17:01.703Z,33.9
2019-02-26T01:17:51.255Z,33.9
2019-02-26T01:18:50.941Z,33.9
2019-02-26T01:19:40.705Z,33.9
2019-02-26T01:20:34.711Z,33.9
2019-02-26T01:21:11.458Z,33.8
2019-02-26T01:22:01.773Z,33.8
2019-02-26T01:22:51.602Z,33.8
2019-02-26T01:23:41.352Z,33.8
2019-02-26T01:24:36.397Z,33.8
2019-02-26T01:25:27.152Z,33.8
2019-02-26T01:26:15.822Z,33.8
2019-02-26T01:27:02.673Z,33.8
2019-02-26T01:28:04.017Z,33.8
2019-02-26T01:29:03.355Z,33.8
2019-02-26T01:29:37.519Z,33.7
2019-02-26T01:30:39.624Z,33.7
2019-02-26T01:31:12.685Z,33.7
2019-02-26T01:32:04.727Z,33.7
2019-02-26T01:32:52.865Z,33.7
2019-02-26T01:33:43.076Z,33.6
2019-02-26T01:34:32.029Z,33.6
2019-02-26T01:35:23.197Z,33.6
2019-02-26T01:36:23.178Z,33.6
2019-02-26T01:37:14.377Z,33.6
2019-02-26T01:38:03.837Z,33.6
2019-02-26T01:38:56.346Z,33.6
2019-02-26T01:39:35.611Z,33.6
2019-02-26T01:40:29.609Z,33.6
2019-02-26T01:41:29.739Z,33.5
2019-02-26T01:42:03.594Z,33.6
2019-02-26T01:43:08.696Z,33.5
2019-02-26T01:43:42.984Z,33.5
2019-02-26T01:44:47.860Z,33.6
2019-02-26T01:45:35.687Z,33.4
2019-02-26T01:46:22.661Z,33.4
2019-02-26T01:47:09.442Z,33.4
2019-02-26T01:47:57.355Z,33.4
2019-02-26T01:48:45.590Z,33.4
2019-02-26T01:49:34.445Z,33.4
2019-02-26T01:50:24.743Z,33.4
2019-02-26T01:51:14.241Z,33.5
2019-02-26T01:52:06.122Z,33.4
2019-02-26T01:53:05.028Z,33.4
2019-02-26T01:53:56.609Z,33.4
2019-02-26T01:54:43.713Z,33.4
2019-02-26T01:55:31.706Z,33.4
2019-02-26T01:56:14.851Z,33.4
2019-02-26T01:57:08.544Z,33.4
2019-02-26T01:57:58.439Z,33.4
2019-02-26T01:58:45.029Z,33.4
2019-02-26T01:59:39.420Z,33.4
2019-02-26T02:00:29.220Z,33.5
2019-02-26T02:01:29.627Z,33.6
2019-02-26T02:02:05.688Z,33.7
2019-02-26T02:02:55.603Z,33.8
2019-02-26T02:03:57.828Z,33.9
2019-02-26T02:04:47.113Z,34.1
2019-02-26T02:05:35.590Z,34.1
2019-02-26T02:06:22.425Z,34.3
2019-02-26T02:07:10.797Z,34.4
2019-02-26T02:08:00.308Z,34.4
2019-02-26T02:08:58.897Z,34.6
2019-02-26T02:09:35.493Z,34.7
2019-02-26T02:10:25.022Z,34.8
2019-02-26T02:11:15.630Z,34.9
2019-02-26T02:12:15.252Z,35
2019-02-26T02:13:13.855Z,35
2019-02-26T02:13:48.842Z,35.1
2019-02-26T02:14:36.402Z,35.2
2019-02-26T02:15:28.549Z,35.3
2019-02-26T02:16:15.408Z,35.3
2019-02-26T02:17:17.867Z,35.4
2019-02-26T02:18:07.640Z,35.4
2019-02-26T02:19:02.552Z,35.5
2019-02-26T02:19:38.431Z,35.6
2019-02-26T02:20:26.895Z,35.6
2019-02-26T02:21:16.017Z,35.6
2019-02-26T02:22:06.354Z,35.7
2019-02-26T02:23:08.127Z,35.7
2019-02-26T02:23:55.697Z,35.8
2019-02-26T02:24:56.032Z,35.8
2019-02-26T02:25:43.155Z,35.8
2019-02-26T02:26:20.614Z,35.9
2019-02-26T02:27:06.704Z,35.9
2019-02-26T02:28:08.222Z,35.9
2019-02-26T02:28:47.359Z,36
2019-02-26T02:29:37.172Z,36.1
2019-02-26T02:30:42.851Z,36.1
2019-02-26T02:31:16.738Z,36.1
2019-02-26T02:32:12.322Z,36.1
2019-02-26T02:33:06.859Z,36.1
2019-02-26T02:33:46.889Z,36.1
2019-02-26T02:34:47.489Z,36.1
2019-02-26T02:35:27.300Z,36.2
2019-02-26T02:36:30.763Z,36.2
2019-02-26T02:37:07.447Z,36.3
2019-02-26T02:38:09.079Z,36.3
2019-02-26T02:38:47.514Z,36.3
2019-02-26T02:39:37.277Z,36.4
2019-02-26T02:40:27.968Z,36.4
2019-02-26T02:41:17.159Z,36.4
2019-02-26T02:42:16.188Z,36.4
2019-02-26T02:42:58.080Z,36.4
2019-02-26T02:43:48.137Z,36.5
2019-02-26T02:44:44.774Z,36.5
2019-02-26T02:45:27.466Z,36.6
2019-02-26T02:46:17.509Z,36.5
2019-02-26T02:47:15.844Z,36.6
2019-02-26T02:48:17.174Z,36.6
2019-02-26T02:48:48.548Z,36.6
2019-02-26T02:49:48.503Z,36.6
2019-02-26T02:50:28.868Z,36.6
2019-02-26T02:51:18.693Z,36.6
2019-02-26T02:52:15.938Z,36.6
2019-02-26T02:53:08.328Z,36.6
2019-02-26T02:54:02.893Z,36.6
2019-02-26T02:54:49.861Z,36.6
2019-02-26T02:55:28.686Z,36.7
2019-02-26T02:56:22.503Z,36.6
2019-02-26T02:57:14.500Z,36.7
2019-02-26T02:58:04.740Z,36.7
2019-02-26T02:58:55.943Z,36.7
2019-02-26T02:59:46.327Z,36.8
2019-02-26T03:00:38.472Z,36.8
2019-02-26T03:01:32.392Z,36.8
2019-02-26T03:02:23.540Z,36.8
2019-02-26T03:03:02.842Z,36.8
2019-02-26T03:04:04.335Z,36.8
2019-02-26T03:04:39.949Z,36.8
2019-02-26T03:08:01.490Z,36.8
2019-02-26T03:08:57.450Z,36.9
2019-02-26T03:09:49.704Z,36.9
2019-02-26T03:10:48.198Z,36.9
2019-02-26T03:11:16.315Z,36.9
2019-02-26T03:12:06.413Z,36.9
2019-02-26T03:13:07.109Z,36.9
2019-02-26T03:13:58.040Z,36.9
2019-02-26T03:14:48.470Z,36.9
2019-02-26T03:15:39.930Z,36.9
2019-02-26T03:16:30.672Z,36.9
2019-02-26T03:17:21.946Z,36.9
2019-02-26T03:17:57.889Z,36.9
2019-02-26T03:18:46.911Z,37
2019-02-26T03:19:47.797Z,37
2019-02-26T03:20:43.852Z,37
2019-02-26T03:21:32.216Z,37
2019-02-26T03:22:22.335Z,37
2019-02-26T03:22:58.252Z,37
2019-02-26T03:23:51.061Z,36.9
2019-02-26T03:24:41.099Z,36.9
2019-02-26T03:25:34.091Z,36.9
2019-02-26T03:26:31.441Z,36.9
2019-02-26T03:27:08.219Z,36.9
2019-02-26T03:27:58.277Z,36.9
2019-02-26T03:28:58.091Z,36.9
2019-02-26T03:29:38.678Z,36.9
2019-02-26T03:30:49.019Z,36.9
2019-02-26T03:31:18.592Z,36.9
2019-02-26T03:32:08.875Z,36.9
2019-02-26T03:33:09.981Z,36.9
2019-02-26T03:33:48.587Z,37
2019-02-26T03:34:38.934Z,36.9
2019-02-26T03:35:29.446Z,36.9
2019-02-26T03:36:23.811Z,36.9
2019-02-26T03:37:15.571Z,36.9
2019-02-26T03:38:08.075Z,36.9
2019-02-26T03:39:06.353Z,36.9
2019-02-26T03:39:38.773Z,36.9
2019-02-26T03:40:40.000Z,36.9
2019-02-26T03:41:33.954Z,36.9
2019-02-26T03:42:21.938Z,36.9
2019-02-26T03:43:01.317Z,36.9
2019-02-26T03:43:49.090Z,36.9
2019-02-26T03:44:39.412Z,36.9
2019-02-26T03:45:30.745Z,36.9
2019-02-26T03:46:19.849Z,36.9
2019-02-26T03:47:09.086Z,36.9
2019-02-26T03:48:03.490Z,36.9
2019-02-26T03:48:49.127Z,36.9
2019-02-26T03:49:44.347Z,36.9
2019-02-26T03:50:32.134Z,36.9
2019-02-26T03:51:23.400Z,36.9
2019-02-26T03:52:09.668Z,36.9
2019-02-26T03:53:00.037Z,36.8
2019-02-26T03:53:49.742Z,36.8
2019-02-26T03:54:54.613Z,36.9
2019-02-26T03:55:44.270Z,36.8
2019-02-26T03:56:25.523Z,36.9
2019-02-26T03:57:25.935Z,36.8
2019-02-26T03:58:07.041Z,36.9
2019-02-26T03:59:12.309Z,36.9
2019-02-26T03:59:39.872Z,36.9
2019-02-26T04:00:41.610Z,36.9
2019-02-26T04:01:26.930Z,36.9
2019-02-26T04:02:26.278Z,36.9
2019-02-26T04:03:00.934Z,36.8
2019-02-26T04:03:49.326Z,36.8
2019-02-26T04:04:41.050Z,36.8
2019-02-26T04:05:30.802Z,36.8
2019-02-26T04:06:20.319Z,36.8
2019-02-26T04:07:15.598Z,36.8
2019-02-26T04:08:09.087Z,36.7
2019-02-26T04:09:00.457Z,36.8
2019-02-26T04:10:01.684Z,36.8
2019-02-26T04:10:31.444Z,36.8
2019-02-26T04:11:32.142Z,36.8
2019-02-26T04:12:24.436Z,36.9
2019-02-26T04:13:03.695Z,36.9
2019-02-26T04:14:00.956Z,36.9
2019-02-26T04:14:41.485Z,36.9
2019-02-26T04:15:42.236Z,36.9
2019-02-26T04:16:20.987Z,36.9
2019-02-26T04:17:13.986Z,36.9
2019-02-26T04:18:01.686Z,36.9
2019-02-26T04:18:56.534Z,36.8
2019-02-26T04:19:46.096Z,36.8
2019-02-26T04:20:33.728Z,36.8
2019-02-26T04:21:26.601Z,36.7
2019-02-26T04:22:27.685Z,36.7
2019-02-26T04:23:02.766Z,36.6
2019-02-26T04:23:51.581Z,36.6
2019-02-26T04:24:42.627Z,36.6
2019-02-26T04:25:40.795Z,36.7
2019-02-26T04:26:38.129Z,36.6
2019-02-26T04:27:12.345Z,36.7
2019-02-26T04:28:14.010Z,36.7
2019-02-26T04:28:53.149Z,36.7
2019-02-26T04:29:53.763Z,36.6
2019-02-26T04:30:54.367Z,36.6
2019-02-26T04:31:22.631Z,36.6
2019-02-26T04:32:26.188Z,36.6
2019-02-26T04:33:15.591Z,36.6
2019-02-26T04:34:08.469Z,36.5
2019-02-26T04:34:42.546Z,36.5
2019-02-26T04:35:32.885Z,36.5
2019-02-26T04:36:27.779Z,36.4
2019-02-26T04:37:17.617Z,36.4
2019-02-26T04:38:10.895Z,36.4
2019-02-26T04:39:00.164Z,36.4
2019-02-26T04:39:52.550Z,36.4
2019-02-26T04:40:44.912Z,36.4
2019-02-26T04:41:23.354Z,36.4
2019-02-26T04:42:24.175Z,36.4
2019-02-26T04:43:16.578Z,36.4
2019-02-26T04:44:08.692Z,36.3
2019-02-26T04:44:47.629Z,36.3
2019-02-26T04:45:33.848Z,36.3
2019-02-26T04:46:31.528Z,36.3
2019-02-26T04:47:14.030Z,36.3
2019-02-26T04:48:05.901Z,36.3
2019-02-26T04:48:53.775Z,36.3
2019-02-26T04:49:48.268Z,36.3
2019-02-26T04:50:48.253Z,36.2
2019-02-26T04:51:24.283Z,36.2
2019-02-26T04:52:22.626Z,36.2
2019-02-26T04:53:15.383Z,36.2
2019-02-26T04:54:05.272Z,36.2
2019-02-26T04:54:44.982Z,36.2
2019-02-26T04:55:48.671Z,36.1
2019-02-26T04:56:23.572Z,36.1
2019-02-26T04:57:14.150Z,36.1
2019-02-26T04:58:04.512Z,36.1
2019-02-26T04:58:54.746Z,36.1
2019-02-26T04:59:48.760Z,36.1
2019-02-26T05:00:43.346Z,36.1
2019-02-26T05:01:24.613Z,36.1
2019-02-26T05:02:14.726Z,36
2019-02-26T05:03:20.611Z,36
2019-02-26T05:03:54.553Z,36
2019-02-26T05:04:47.821Z,35.9
2019-02-26T05:05:42.247Z,35.9
2019-02-26T05:06:25.024Z,35.9
2019-02-26T05:07:24.298Z,35.9
2019-02-26T05:08:19.349Z,35.9
2019-02-26T05:09:10.978Z,35.9
2019-02-26T05:09:47.303Z,35.8
2019-02-26T05:10:39.399Z,35.8
2019-02-26T05:11:45.551Z,35.8
2019-02-26T05:12:15.663Z,35.8
2019-02-26T05:13:14.283Z,35.8
2019-02-26T05:13:55.803Z,35.8
2019-02-26T05:14:45.856Z,35.8
2019-02-26T05:15:38.996Z,35.7
2019-02-26T05:16:42.523Z,35.7
2019-02-26T05:17:15.483Z,35.7
2019-02-26T05:18:05.835Z,35.7
2019-02-26T05:19:03.019Z,35.7
2019-02-26T05:19:56.378Z,35.7
2019-02-26T05:20:52.463Z,35.7
2019-02-26T05:21:39.872Z,35.7
2019-02-26T05:22:16.100Z,35.6
2019-02-26T05:23:11.332Z,35.6
2019-02-26T05:24:06.657Z,35.6
2019-02-26T05:24:57.211Z,35.6
2019-02-26T05:25:48.183Z,35.5
2019-02-26T05:26:26.723Z,35.5
2019-02-26T05:27:29.167Z,35.5
2019-02-26T05:28:20.658Z,35.4
2019-02-26T05:28:56.909Z,35.4
2019-02-26T05:29:58.765Z,35.4
2019-02-26T05:30:48.698Z,35.3
2019-02-26T05:31:26.715Z,35.4
2019-02-26T05:32:16.480Z,35.3
2019-02-26T05:33:10.944Z,35.3
2019-02-26T05:34:04.981Z,35.3
2019-02-26T05:34:55.220Z,35.2
2019-02-26T05:35:46.153Z,35.2
2019-02-26T05:36:37.156Z,35.2
2019-02-26T05:37:19.437Z,35.2
2019-02-26T05:38:14.347Z,35.2
2019-02-26T05:39:06.522Z,35.1
2019-02-26T05:39:58.826Z,35.1
2019-02-26T05:40:57.611Z,35.1
2019-02-26T05:41:26.593Z,35.1
2019-02-26T05:42:16.966Z,35
2019-02-26T05:43:11.427Z,35
2019-02-26T05:44:13.843Z,35
2019-02-26T05:44:47.223Z,35
2019-02-26T05:45:40.292Z,34.9
2019-02-26T05:46:33.638Z,35
2019-02-26T05:47:29.873Z,34.9
2019-02-26T05:48:07.354Z,34.9
2019-02-26T05:48:57.601Z,34.9
2019-02-26T05:49:51.097Z,34.9
2019-02-26T05:50:49.327Z,34.9
2019-02-26T05:51:41.765Z,34.9
2019-02-26T05:52:18.402Z,34.8
2019-02-26T05:53:17.720Z,34.8
2019-02-26T05:54:11.522Z,34.8
2019-02-26T05:54:47.459Z,34.8
2019-02-26T05:55:38.598Z,34.8
2019-02-26T05:56:28.795Z,34.8
2019-02-26T05:57:37.864Z,34.8
2019-02-26T05:58:23.047Z,34.8
2019-02-26T05:59:13.197Z,34.7
2019-02-26T05:59:48.708Z,34.7
2019-02-26T06:00:39.025Z,34.7
2019-02-26T06:01:32.790Z,34.7
2019-02-26T06:02:29.227Z,34.6
2019-02-26T06:03:22.706Z,34.6
2019-02-26T06:03:58.704Z,34.6
2019-02-26T06:06:05.075Z,34.5
2019-02-26T06:06:50.037Z,34.6
2019-02-26T06:07:43.626Z,34.5
2019-02-26T06:08:45.066Z,34.5
2019-02-26T06:09:19.465Z,34.5
2019-02-26T06:10:07.093Z,34.4
2019-02-26T06:10:56.866Z,34.4
2019-02-26T06:11:55.064Z,34.4
2019-02-26T06:12:50.639Z,34.4
2019-02-26T06:13:35.262Z,34.4
2019-02-26T06:14:18.616Z,34.4
2019-02-26T06:15:12.629Z,34.3
2019-02-26T06:16:11.092Z,34.3
2019-02-26T06:16:59.866Z,34.3
2019-02-26T06:17:58.226Z,34.3
2019-02-26T06:18:27.664Z,34.3
2019-02-26T06:19:22.420Z,34.3
2019-02-26T06:20:15.542Z,34.3
2019-02-26T06:21:05.399Z,34.3
2019-02-26T06:22:00.273Z,34.2
2019-02-26T06:22:40.426Z,34.2
2019-02-26T06:23:45.127Z,34.2
2019-02-26T06:24:35.485Z,34.1
2019-02-26T06:25:29.239Z,34.1
2019-02-26T06:26:21.209Z,34.1
2019-02-26T06:26:51.073Z,34.1
2019-02-26T06:27:41.768Z,34.1
2019-02-26T06:28:42.818Z,34.1
2019-02-26T06:29:40.085Z,34
2019-02-26T06:30:17.785Z,34.1
2019-02-26T06:31:02.203Z,34
2019-02-26T06:31:54.798Z,34
2019-02-26T06:32:49.728Z,34
2019-02-26T06:33:53.411Z,33.9
2019-02-26T06:34:26.888Z,33.9
2019-02-26T06:35:23.385Z,33.9
2019-02-26T06:36:10.550Z,33.9
2019-02-26T06:36:57.862Z,33.9
2019-02-26T06:37:44.902Z,33.9
2019-02-26T06:38:39.093Z,33.9
2019-02-26T06:39:38.877Z,33.9
2019-02-26T06:40:12.738Z,33.9
2019-02-26T06:41:02.029Z,33.8
2019-02-26T06:41:55.797Z,33.8
2019-02-26T06:42:45.522Z,33.8
2019-02-26T06:43:56.195Z,33.8
2019-02-26T06:44:23.059Z,33.8
2019-02-26T06:45:21.557Z,33.8
2019-02-26T06:46:16.607Z,33.8
2019-02-26T06:46:52.734Z,33.7
2019-02-26T06:47:42.066Z,33.7
2019-02-26T06:48:37.100Z,33.7
2019-02-26T06:49:32.927Z,33.7
2019-02-26T06:50:23.045Z,33.7
2019-02-26T06:51:11.502Z,33.6
2019-02-26T06:51:58.605Z,33.6
2019-02-26T06:52:53.807Z,33.6
2019-02-26T06:53:33.417Z,33.6
2019-02-26T06:54:35.716Z,33.6
2019-02-26T06:55:13.790Z,33.6
2019-02-26T06:56:06.311Z,33.6
2019-02-26T06:56:58.129Z,33.6
2019-02-26T06:57:58.749Z,33.5
2019-02-26T06:58:35.341Z,33.5
2019-02-26T06:59:24.726Z,33.5
2019-02-26T07:00:13.349Z,33.4
2019-02-26T07:01:03.196Z,33.4
2019-02-26T07:01:57.694Z,33.4
2019-02-26T07:02:48.576Z,33.4
2019-02-26T07:03:33.856Z,33.4
2019-02-26T07:05:56.211Z,33.4
2019-02-26T07:06:46.336Z,33.4
2019-02-26T07:07:37.113Z,33.3
2019-02-26T07:08:35.321Z,33.3
2019-02-26T07:09:25.421Z,33.3
2019-02-26T07:10:07.066Z,33.3
2019-02-26T07:10:57.386Z,33.3
2019-02-26T07:11:47.088Z,33.3
2019-02-26T07:12:45.258Z,33.3
2019-02-26T07:13:27.003Z,33.3
2019-02-26T07:14:17.279Z,33.3
2019-02-26T07:15:07.338Z,33.2
2019-02-26T07:15:57.650Z,33.2
2019-02-26T07:16:47.201Z,33.2
2019-02-26T07:17:49.788Z,40.7
2019-02-26T07:18:27.553Z,46.4
2019-02-26T07:19:21.496Z,47.4
2019-02-26T07:20:08.835Z,48.1
2019-02-26T07:21:05.228Z,49.2
2019-02-26T07:21:56.513Z,50.9
2019-02-26T07:22:43.759Z,51.8
2019-02-26T07:23:40.545Z,52.3
2019-02-26T07:24:30.205Z,52.2
2019-02-26T07:25:20.856Z,51.9
2019-02-26T07:25:58.319Z,51.4
2019-02-26T07:26:53.663Z,51.1
2019-02-26T07:27:43.185Z,50.5
2019-02-26T07:28:31.990Z,49.9
2019-02-26T07:29:22.842Z,49.4
2019-02-26T07:30:08.669Z,48.8
2019-02-26T07:30:58.087Z,48.5
2019-02-26T07:32:00.421Z,47.9
2019-02-26T07:32:50.830Z,47.5
2019-02-26T07:33:41.095Z,47.1
2019-02-26T07:34:30.340Z,46.7
2019-02-26T07:35:20.822Z,46.3
2019-02-26T07:36:08.602Z,46
2019-02-26T07:36:56.709Z,45.7
2019-02-26T07:37:45.243Z,45.4
2019-02-26T07:38:51.409Z,45.1
2019-02-26T07:39:27.471Z,44.7
2019-02-26T07:40:22.337Z,44.6
2019-02-26T07:41:10.234Z,44.2
2019-02-26T07:41:58.662Z,44.1
2019-02-26T07:42:53.265Z,43.9
2019-02-26T07:43:28.954Z,43.6
2019-02-26T07:44:32.637Z,43.4
2019-02-26T07:45:34.636Z,43.3
2019-02-26T07:45:59.681Z,43
2019-02-26T07:46:50.704Z,42.9
2019-02-26T07:47:42.154Z,43.8
2019-02-26T07:48:38.276Z,48.9
2019-02-26T07:49:22.002Z,49.2
2019-02-26T07:50:21.414Z,50.4
2019-02-26T07:51:49.497Z,53.1
2019-02-26T07:52:39.813Z,53.3
2019-02-26T07:53:29.905Z,53.1
2019-02-26T07:54:19.929Z,52.8
2019-02-26T07:55:21.063Z,52.3
2019-02-26T07:56:12.097Z,51.6
2019-02-26T07:57:02.584Z,51.2
2019-02-26T07:57:53.158Z,50.6
2019-02-26T07:58:41.132Z,50.1
2019-02-26T07:59:50.173Z,49.6
2019-02-26T08:00:10.354Z,48.8
2019-02-26T08:01:00.511Z,48.6
2019-02-26T08:01:55.003Z,48.1
2019-02-26T08:02:42.796Z,49.6
2019-02-26T08:03:34.505Z,50.9
2019-02-26T08:04:23.564Z,50.9
2019-02-26T08:05:10.951Z,52.5
2019-02-26T08:06:15.578Z,54.1
2019-02-26T08:06:59.088Z,54.8
2019-02-26T08:07:40.873Z,54.9
2019-02-26T08:08:30.925Z,54.7
2019-02-26T08:09:28.062Z,54.5
2019-02-26T08:10:23.275Z,54.4
2019-02-26T08:11:01.085Z,54.5
2019-02-26T08:11:53.890Z,54.6
2019-02-26T08:12:47.585Z,54.8
2019-02-26T08:13:40.787Z,54.9
2019-02-26T08:14:29.510Z,55.1
2019-02-26T08:15:20.155Z,55.1
2019-02-26T08:16:09.632Z,55.1
2019-02-26T08:17:09.413Z,55.1
2019-02-26T08:17:45.551Z,55
2019-02-26T08:18:31.561Z,54.9
2019-02-26T08:19:21.608Z,54.8
2019-02-26T08:20:19.240Z,54.8
2019-02-26T08:21:09.637Z,54.8
2019-02-26T08:22:01.499Z,54.8
2019-02-26T08:22:41.605Z,54.8
2019-02-26T08:23:32.016Z,54.8
2019-02-26T08:24:29.737Z,54.9
2019-02-26T08:25:12.299Z,54.9
2019-02-26T08:26:07.362Z,54.9
2019-02-26T08:26:54.904Z,54.9
2019-02-26T08:27:43.519Z,54.9
2019-02-26T08:28:32.249Z,54.9
2019-02-26T08:29:27.007Z,54.9
2019-02-26T08:30:26.679Z,54.8
2019-02-26T08:31:05.210Z,54.6
2019-02-26T08:32:05.192Z,54.4
2019-02-26T08:32:58.887Z,54.4
2019-02-26T08:33:32.954Z,54.6
2019-02-26T08:34:22.911Z,54.8
2019-02-26T08:35:12.964Z,55
2019-02-26T08:36:02.752Z,55.3
2019-02-26T08:36:52.786Z,55.4
2019-02-26T08:37:43.191Z,55.6
2019-02-26T08:38:35.709Z,55.7
2019-02-26T08:39:22.681Z,55.7
2019-02-26T08:40:15.932Z,55.7
2019-02-26T08:41:03.101Z,55.8
2019-02-26T08:41:53.145Z,55.8
2019-02-26T08:42:43.206Z,55.8
2019-02-26T08:43:33.318Z,55.9
2019-02-26T08:44:22.369Z,56
2019-02-26T08:45:27.151Z,56.1
2019-02-26T08:46:03.144Z,56.3
2019-02-26T08:46:54.873Z,56.3
2019-02-26T08:47:42.765Z,56.4
2019-02-26T08:48:33.841Z,56.5
2019-02-26T08:49:27.163Z,56.7
2019-02-26T08:50:19.638Z,56.8
2019-02-26T08:51:24.476Z,56.9
2019-02-26T08:51:54.104Z,57
2019-02-26T08:52:56.099Z,57.1
2019-02-26T08:53:36.700Z,57.2
2019-02-26T08:54:39.047Z,57.3
2019-02-26T08:55:28.205Z,57.3
2019-02-26T08:56:10.823Z,57.4
2019-02-26T08:56:54.431Z,57.4
2019-02-26T08:57:44.198Z,57.6
2019-02-26T08:58:33.783Z,57.6
2019-02-26T09:00:14.445Z,57.8
2019-02-26T09:01:04.424Z,57.8
2019-02-26T09:01:54.182Z,57.9
2019-02-26T09:03:00.323Z,58
2019-02-26T09:03:44.467Z,58.1
2019-02-26T09:04:28.942Z,58.1
2019-02-26T09:05:17.403Z,58.2
2019-02-26T09:06:20.958Z,58.3
2019-02-26T09:07:06.270Z,58.3
2019-02-26T09:07:54.634Z,58.4
2019-02-26T09:08:46.765Z,58.4
2019-02-26T09:09:36.776Z,58.5
2019-02-26T09:11:17.946Z,58.6
2019-02-26T09:12:06.372Z,58.7
2019-02-26T09:12:56.339Z,58.8
2019-02-26T09:13:48.199Z,58.8
2019-02-26T09:14:25.337Z,58.9
2019-02-26T09:15:17.769Z,58.9
2019-02-26T09:16:12.202Z,59
2019-02-26T09:17:08.080Z,59.1
2019-02-26T09:17:47.923Z,59.1
2019-02-26T09:18:45.079Z,59.2
2019-02-26T09:19:40.597Z,59.2
2019-02-26T09:20:20.094Z,59.3
2019-02-26T09:21:12.496Z,59.3
2019-02-26T09:21:59.734Z,59.3
2019-02-26T09:23:04.954Z,59.4
2019-02-26T09:23:38.062Z,59.4
2019-02-26T09:24:26.326Z,59.5
2019-02-26T09:25:16.133Z,59.6
2019-02-26T09:26:11.806Z,59.6
2019-02-26T09:27:08.660Z,59.7
2019-02-26T09:27:48.886Z,59.8
2019-02-26T09:28:37.946Z,59.8
2019-02-26T09:29:27.601Z,59.8
2019-02-26T09:30:21.296Z,59.9
2019-02-26T09:31:17.391Z,59.9
2019-02-26T09:31:56.514Z,60
2019-02-26T09:32:49.806Z,60.1
2019-02-26T09:33:49.406Z,60.1
2019-02-26T09:34:42.916Z,60.2
2019-02-26T09:35:34.191Z,60.3
2019-02-26T09:36:15.118Z,60.3
2019-02-26T09:37:11.431Z,60.3
2019-02-26T09:38:04.398Z,60.4
2019-02-26T09:38:39.149Z,60.4
2019-02-26T09:39:38.900Z,60.5
2019-02-26T09:40:34.846Z,60.5
2019-02-26T09:41:06.363Z,60.6
2019-02-26T09:42:09.678Z,60.7
2019-02-26T09:43:03.636Z,60.8
2019-02-26T09:43:49.482Z,60.8
2019-02-26T09:44:39.790Z,60.8
2019-02-26T09:45:32.270Z,60.6
2019-02-26T09:46:22.975Z,60.5
2019-02-26T09:47:10.160Z,60.4
2019-02-26T09:48:03.155Z,60.3
2019-02-26T09:48:49.765Z,60.3
2019-02-26T09:49:39.207Z,60.3
2019-02-26T09:50:27.290Z,60.3
2019-02-26T09:51:19.990Z,60.3
2019-02-26T09:52:10.323Z,60.4
2019-02-26T09:53:01.485Z,60.4
2019-02-26T09:53:38.237Z,60.5
2019-02-26T09:54:28.455Z,60.6
2019-02-26T09:55:18.390Z,60.6
2019-02-26T09:56:08.130Z,60.7
2019-02-26T09:56:58.180Z,60.8
2019-02-26T09:57:47.218Z,60.8
2019-02-26T09:58:52.295Z,60.8
2019-02-26T09:59:40.427Z,60.9
2019-02-26T10:00:33.239Z,61
2019-02-26T10:01:20.098Z,61.1
2019-02-26T10:02:09.687Z,61.1
2019-02-26T10:02:56.099Z,61.1
2019-02-26T10:03:45.867Z,61.2
2019-02-26T10:04:33.595Z,61.3
2019-02-26T10:06:56.102Z,61.4
2019-02-26T10:07:45.854Z,61.5
2019-02-26T10:08:35.899Z,61.6
2019-02-26T10:09:26.327Z,61.6
2019-02-26T10:10:18.831Z,61.7
2019-02-26T10:11:10.036Z,61.8
2019-02-26T10:11:57.121Z,61.8
2019-02-26T10:12:46.469Z,61.9
2019-02-26T10:13:36.834Z,61.9
2019-02-26T10:14:39.144Z,62
2019-02-26T10:15:16.069Z,62.1
2019-02-26T10:16:13.355Z,62.1
2019-02-26T10:17:01.295Z,62.1
2019-02-26T10:17:49.541Z,62.1
2019-02-26T10:18:38.134Z,62.1
2019-02-26T10:19:26.417Z,62.1
2019-02-26T10:20:28.401Z,62.2
2019-02-26T10:21:21.883Z,62.3
2019-02-26T10:22:14.268Z,62.4
2019-02-26T10:22:47.891Z,62.4
2019-02-26T10:23:37.564Z,62.4
2019-02-26T10:24:43.431Z,62.3
2019-02-26T10:25:26.273Z,62.1
2019-02-26T10:26:15.568Z,61.9
2019-02-26T10:27:17.438Z,61.8
2019-02-26T10:27:52.238Z,61.5
2019-02-26T10:29:10.046Z,61.4
2019-02-26T10:29:28.078Z,61.5
2019-02-26T10:30:21.885Z,61.6
2019-02-26T10:31:14.698Z,61.8
2019-02-26T10:32:01.649Z,61.7
2019-02-26T10:32:52.308Z,61.6
2019-02-26T10:33:54.093Z,61.3
2019-02-26T10:34:35.483Z,60.9
2019-02-26T10:35:52.305Z,60.7
2019-02-26T10:36:21.581Z,60.5
2019-02-26T10:36:58.915Z,60.4
2019-02-26T10:37:49.500Z,60.3
2019-02-26T10:38:43.615Z,60.2
2019-02-26T10:39:35.077Z,60.1
2019-02-26T10:40:34.172Z,60.1
2019-02-26T10:41:12.790Z,60
2019-02-26T10:42:07.605Z,59.9
2019-02-26T10:42:52.360Z,59.8
2019-02-26T10:43:45.959Z,59.7
2019-02-26T10:44:33.702Z,59.6
2019-02-26T10:45:22.795Z,59.5
2019-02-26T10:46:13.172Z,59.4
2019-02-26T10:47:14.745Z,59.3
2019-02-26T10:48:05.840Z,59.2
2019-02-26T10:48:55.367Z,59.1
2019-02-26T10:49:34.635Z,58.9
2019-02-26T10:50:52.129Z,58.8
2019-02-26T10:51:16.581Z,58.6
2019-02-26T10:53:23.287Z,58.5
2019-02-26T10:53:43.983Z,58.5
2019-02-26T10:54:50.246Z,58.4
2019-02-26T10:55:46.051Z,58.4
2019-02-26T10:56:14.085Z,58.3
2019-02-26T10:57:19.109Z,58.3
2019-02-26T10:58:14.592Z,58.3
2019-02-26T10:58:43.689Z,58.4
2019-02-26T10:59:34.536Z,58.4
2019-02-26T11:01:14.451Z,58.6
2019-02-26T11:02:08.325Z,58.8
2019-02-26T11:02:59.762Z,58.8
2019-02-26T11:03:59.334Z,59
2019-02-26T11:04:58.846Z,59.1
2019-02-26T11:05:32.090Z,59.2
2019-02-26T11:06:24.143Z,59.4
2019-02-26T11:07:18.330Z,59.5
2019-02-26T11:08:12.201Z,59.6
2019-02-26T11:08:47.035Z,59.8
2019-02-26T11:09:37.636Z,59.9
2019-02-26T11:10:29.943Z,60
2019-02-26T11:11:23.701Z,60.2
2019-02-26T11:12:13.608Z,60.2
2019-02-26T11:13:04.583Z,60.3
2019-02-26T11:13:58.215Z,60.4
2019-02-26T11:14:48.151Z,60.5
2019-02-26T11:15:40.050Z,60.5
2019-02-26T11:16:40.011Z,60.6
2019-02-26T11:17:05.478Z,60.8
2019-02-26T11:18:00.873Z,60.8
2019-02-26T11:18:52.088Z,60.9
2019-02-26T11:19:46.260Z,61